Time;durP1;ratioP1;P1;durP2;ratioP2;P2;SDS_P1;SDS_P2;PMS_P1;PMS_P2;Temp;Humidity;BMP_temperature;BMP_pressure;BME280_temperature;BME280_humidity;BME280_pressure;Samples;Min_cycle;Max_cycle;Signal;HPM_P1;HPM_P2
2023/04/17 00:02:18;;;;;;;;;;;9.40;95.00;;;;;;5039455;28;19928;-76
2023/04/17 00:04:45;;;;;;;;;;;9.40;95.00;;;;;;5037053;28;19928;-75
2023/04/17 00:07:11;;;;;;;;;;;9.40;95.00;;;;;;5045517;28;20224;-76
2023/04/17 00:09:38;;;;;;;;;;;9.40;95.00;;;;;;5049878;28;19928;-75
2023/04/17 00:12:05;;;;;;;;;;;9.40;95.00;;;;;;5043021;28;20489;-75
2023/04/17 00:14:32;;;;;;;;;;;9.40;95.00;;;;;;5045495;28;20387;-76
2023/04/17 00:16:59;;;;;;;;;;;9.40;95.00;;;;;;5045846;28;19928;-77
2023/04/17 00:19:25;;;;;;;;;;;9.40;95.00;;;;;;5052714;28;19954;-75
2023/04/17 00:21:52;;;;;;;;;;;9.40;95.00;;;;;;5047619;28;19928;-76
2023/04/17 00:24:19;;;;;;;;;;;9.40;95.00;;;;;;5041279;28;20691;-75
2023/04/17 00:26:45;;;;;;;;;;;9.40;95.00;;;;;;5046376;28;19932;-75
2023/04/17 00:29:12;;;;;;;;;;;9.40;94.90;;;;;;5047488;28;19929;-75
2023/04/17 00:31:39;;;;;;;;;;;9.40;94.90;;;;;;5038488;28;19939;-76
2023/04/17 00:34:06;;;;;;;;;;;9.40;94.90;;;;;;5040331;28;19935;-76
2023/04/17 00:36:33;;;;;;;;;;;9.40;94.90;;;;;;5044760;28;19929;-75
2023/04/17 00:38:59;;;;;;;;;;;9.40;94.90;;;;;;5048480;28;19939;-76
2023/04/17 00:41:26;;;;;;;;;;;9.30;94.90;;;;;;5039179;28;19944;-75
2023/04/17 00:43:52;;;;;;;;;;;9.40;94.90;;;;;;5044978;28;20295;-75
2023/04/17 00:46:19;;;;;;;;;;;9.40;94.90;;;;;;5042133;28;19934;-75
2023/04/17 00:48:47;;;;;;;;;;;9.30;94.90;;;;;;5042439;28;19936;-75
2023/04/17 00:51:13;;;;;;;;;;;9.30;94.80;;;;;;5040399;28;20505;-76
2023/04/17 00:53:40;;;;;;;;;;;9.30;94.80;;;;;;5050136;28;19928;-76
2023/04/17 00:56:07;;;;;;;;;;;9.30;94.80;;;;;;5038306;28;19929;-76
2023/04/17 00:58:35;;;;;;;;;;;9.30;94.80;;;;;;5041967;28;19936;-75
2023/04/17 01:01:02;;;;;;;;;;;9.30;94.80;;;;;;5041419;28;19959;-75
2023/04/17 01:03:30;;;;;;;;;;;9.30;94.80;;;;;;5043720;28;19929;-76
2023/04/17 01:05:58;;;;;;;;;;;9.50;94.90;;;;;;5038564;28;19932;-75
2023/04/17 01:08:25;;;;;;;;;;;9.30;94.80;;;;;;5046095;28;19928;-76
2023/04/17 01:10:52;;;;;;;;;;;9.30;95.20;;;;;;5043427;28;19936;-76
2023/04/17 01:13:18;;;;;;;;;;;9.30;94.90;;;;;;5045896;28;20723;-76
2023/04/17 01:15:45;;;;;;;;;;;9.30;94.90;;;;;;5039471;28;19933;-75
2023/04/17 01:18:12;;;;;;;;;;;9.30;95.00;;;;;;5032267;28;19933;-76
2023/04/17 01:20:38;;;;;;;;;;;9.30;95.00;;;;;;5042327;28;19928;-76
2023/04/17 01:23:06;;;;;;;;;;;9.30;95.00;;;;;;5039226;28;20410;-76
2023/04/17 01:25:34;;;;;;;;;;;9.30;95.10;;;;;;5040708;28;19928;-75
2023/04/17 01:28:01;;;;;;;;;;;9.30;95.10;;;;;;5042130;28;20556;-75
2023/04/17 01:30:28;;;;;;;;;;;9.30;95.10;;;;;;5038884;28;20441;-75
2023/04/17 01:32:54;;;;;;;;;;;9.30;95.10;;;;;;5044090;28;20314;-76
2023/04/17 01:35:21;;;;;;;;;;;9.30;95.10;;;;;;5037580;28;19935;-75
2023/04/17 01:37:48;;;;;;;;;;;9.30;95.10;;;;;;5043402;28;20362;-76
2023/04/17 01:40:14;;;;;;;;;;;9.30;95.10;;;;;;5039253;28;20310;-76
2023/04/17 01:42:42;;;;;;;;;;;9.30;95.10;;;;;;5046324;28;19996;-76
2023/04/17 01:45:09;;;;;;;;;;;9.30;95.10;;;;;;5045188;28;19929;-74
2023/04/17 01:47:36;;;;;;;;;;;9.30;95.10;;;;;;5048076;28;19935;-76
2023/04/17 01:50:03;;;;;;;;;;;9.30;95.10;;;;;;5036603;28;19933;-75
2023/04/17 01:52:29;;;;;;;;;;;9.20;95.10;;;;;;5038589;28;21609;-76
2023/04/17 01:54:56;;;;;;;;;;;9.20;95.20;;;;;;5043431;28;19976;-74
2023/04/17 01:57:22;;;;;;;;;;;9.20;95.10;;;;;;5043405;28;19962;-76
2023/04/17 01:59:50;;;;;;;;;;;9.20;95.10;;;;;;5046599;28;19929;-75
2023/04/17 02:02:17;;;;;;;;;;;9.20;95.10;;;;;;5043006;28;20607;-76
2023/04/17 02:04:43;;;;;;;;;;;9.20;95.10;;;;;;5039064;28;19936;-75
2023/04/17 02:07:10;;;;;;;;;;;9.20;95.00;;;;;;5045667;28;19936;-76
2023/04/17 02:09:36;;;;;;;;;;;9.20;95.10;;;;;;5041631;28;19945;-75
2023/04/17 02:12:03;;;;;;;;;;;9.20;95.10;;;;;;5043804;28;20386;-76
2023/04/17 02:14:30;;;;;;;;;;;9.20;95.10;;;;;;5043816;28;20669;-76
2023/04/17 02:16:57;;;;;;;;;;;9.20;95.10;;;;;;5041791;28;19936;-76
2023/04/17 02:19:24;;;;;;;;;;;9.20;95.10;;;;;;5040146;28;19928;-76
2023/04/17 02:21:51;;;;;;;;;;;9.20;95.10;;;;;;5034845;28;21789;-75
2023/04/17 02:24:17;;;;;;;;;;;9.20;95.00;;;;;;5037802;28;19936;-76
2023/04/17 02:26:44;;;;;;;;;;;9.20;95.00;;;;;;5038028;28;19936;-76
2023/04/17 02:29:10;;;;;;;;;;;9.20;95.00;;;;;;5041518;28;19929;-76
2023/04/17 02:31:37;;;;;;;;;;;9.20;95.00;;;;;;5036580;28;19932;-76
2023/04/17 02:34:05;;;;;;;;;;;9.20;95.00;;;;;;5036902;28;19925;-76
2023/04/17 02:36:31;;;;;;;;;;;9.20;95.00;;;;;;5042623;28;19924;-77
2023/04/17 02:38:58;;;;;;;;;;;9.20;95.00;;;;;;5045946;28;20020;-76
2023/04/17 02:41:24;;;;;;;;;;;9.20;95.00;;;;;;5039179;28;19932;-76
2023/04/17 02:43:51;;;;;;;;;;;9.10;95.00;;;;;;5034852;28;19929;-74
2023/04/17 02:46:18;;;;;;;;;;;9.20;95.00;;;;;;5040451;28;19952;-76
2023/04/17 02:48:44;;;;;;;;;;;9.20;95.10;;;;;;5038535;28;19936;-76
2023/04/17 02:51:12;;;;;;;;;;;9.20;95.00;;;;;;5036242;28;19928;-74
2023/04/17 02:53:39;;;;;;;;;;;9.10;95.00;;;;;;5041535;28;19936;-75
2023/04/17 02:56:05;;;;;;;;;;;9.10;95.10;;;;;;5036761;28;19929;-76
2023/04/17 02:58:32;;;;;;;;;;;9.10;95.10;;;;;;5039890;28;19929;-75
2023/04/17 03:01:02;;;;;;;;;;;9.20;95.10;;;;;;5038605;28;20090;-76
2023/04/17 03:03:29;;;;;;;;;;;9.10;95.10;;;;;;5037172;28;20208;-76
2023/04/17 03:05:56;;;;;;;;;;;9.10;95.10;;;;;;5039995;28;20767;-76
2023/04/17 03:08:24;;;;;;;;;;;9.20;95.10;;;;;;5038798;28;19929;-75
2023/04/17 03:10:50;;;;;;;;;;;9.20;95.20;;;;;;5034694;28;20013;-76
2023/04/17 03:13:17;;;;;;;;;;;9.10;95.10;;;;;;5041283;28;19936;-76
2023/04/17 03:15:44;;;;;;;;;;;9.10;95.10;;;;;;5039579;28;20663;-76
2023/04/17 03:18:10;;;;;;;;;;;9.10;95.10;;;;;;5034722;28;19933;-75
2023/04/17 03:20:37;;;;;;;;;;;9.10;95.10;;;;;;5038155;28;19939;-76
2023/04/17 03:23:03;;;;;;;;;;;9.10;95.10;;;;;;5037970;28;19931;-75
2023/04/17 03:25:31;;;;;;;;;;;9.10;95.10;;;;;;5037955;28;19944;-76
2023/04/17 03:27:58;;;;;;;;;;;9.10;95.20;;;;;;5042441;28;19929;-75
2023/04/17 03:30:24;;;;;;;;;;;9.10;95.20;;;;;;5036278;28;19928;-76
2023/04/17 03:32:51;;;;;;;;;;;9.10;95.20;;;;;;5041307;28;19936;-76
2023/04/17 03:35:17;;;;;;;;;;;9.10;95.20;;;;;;5046159;28;19928;-75
2023/04/17 03:37:44;;;;;;;;;;;9.10;95.20;;;;;;5040365;28;19935;-76
2023/04/17 03:40:10;;;;;;;;;;;9.10;95.20;;;;;;5035790;28;19932;-76
2023/04/17 03:42:38;;;;;;;;;;;9.10;95.20;;;;;;5035998;28;19940;-76
2023/04/17 03:45:05;;;;;;;;;;;9.10;95.20;;;;;;5043058;28;19929;-75
2023/04/17 03:47:32;;;;;;;;;;;9.10;95.20;;;;;;5055794;28;19928;-76
2023/04/17 03:49:58;;;;;;;;;;;9.10;95.20;;;;;;5060911;28;20067;-76
2023/04/17 03:52:25;;;;;;;;;;;9.00;95.20;;;;;;5060397;28;20308;-76
2023/04/17 03:54:52;;;;;;;;;;;9.10;95.20;;;;;;5067167;28;19937;-76
2023/04/17 03:57:18;;;;;;;;;;;9.10;95.20;;;;;;5058293;28;19928;-74
2023/04/17 03:59:46;;;;;;;;;;;9.10;95.20;;;;;;5067061;28;19951;-74
2023/04/17 04:02:12;;;;;;;;;;;9.00;95.20;;;;;;5063102;28;19928;-75
2023/04/17 04:04:39;;;;;;;;;;;9.10;95.20;;;;;;5058681;28;19986;-75
2023/04/17 04:07:06;;;;;;;;;;;9.00;95.20;;;;;;5061730;28;20742;-75
2023/04/17 04:09:32;;;;;;;;;;;9.00;95.20;;;;;;5064229;28;19999;-76
2023/04/17 04:11:59;;;;;;;;;;;9.00;95.20;;;;;;5058817;28;19932;-76
2023/04/17 04:14:25;;;;;;;;;;;9.00;95.20;;;;;;5060225;28;19936;-75
2023/04/17 04:16:53;;;;;;;;;;;9.00;95.20;;;;;;5071326;28;19928;-75
2023/04/17 04:19:20;;;;;;;;;;;9.00;95.20;;;;;;5058210;28;21669;-75
2023/04/17 04:21:46;;;;;;;;;;;9.00;95.20;;;;;;5055649;28;20011;-76
2023/04/17 04:24:13;;;;;;;;;;;9.00;95.20;;;;;;5059311;28;19935;-76
2023/04/17 04:26:40;;;;;;;;;;;9.00;95.20;;;;;;5056188;28;20758;-75
2023/04/17 04:29:07;;;;;;;;;;;9.00;95.20;;;;;;5054505;28;20660;-75
2023/04/17 04:31:34;;;;;;;;;;;9.00;95.20;;;;;;5047208;28;19974;-76
2023/04/17 04:34:02;;;;;;;;;;;9.00;95.20;;;;;;5043087;28;20020;-76
2023/04/17 04:36:28;;;;;;;;;;;9.00;95.20;;;;;;5038311;28;19925;-76
2023/04/17 04:38:58;;;;;;;;;;;9.00;95.30;;;;;;5039743;28;19925;-75
2023/04/17 04:41:25;;;;;;;;;;;9.00;95.30;;;;;;5034524;28;19978;-76
2023/04/17 04:43:52;;;;;;;;;;;9.00;95.30;;;;;;5036056;28;19936;-75
2023/04/17 04:46:18;;;;;;;;;;;9.00;95.30;;;;;;5040691;28;21009;-76
2023/04/17 04:48:45;;;;;;;;;;;9.00;95.30;;;;;;5038896;28;19931;-76
2023/04/17 04:51:13;;;;;;;;;;;9.00;95.30;;;;;;5040117;28;20016;-76
2023/04/17 04:53:39;;;;;;;;;;;8.90;95.20;;;;;;5037859;28;19929;-76
2023/04/17 04:56:06;;;;;;;;;;;8.90;95.20;;;;;;5039346;28;19928;-75
2023/04/17 04:58:32;;;;;;;;;;;8.90;95.30;;;;;;5039110;28;19935;-75
2023/04/17 05:00:59;;;;;;;;;;;9.00;95.30;;;;;;5039170;28;19938;-76
2023/04/17 05:03:26;;;;;;;;;;;9.00;95.30;;;;;;5032357;28;19936;-75
2023/04/17 05:05:52;;;;;;;;;;;8.90;95.30;;;;;;5040634;28;20003;-75
2023/04/17 05:08:20;;;;;;;;;;;8.90;95.30;;;;;;5044072;28;19929;-76
2023/04/17 05:10:47;;;;;;;;;;;9.00;95.40;;;;;;5038811;28;19928;-76
2023/04/17 05:13:13;;;;;;;;;;;8.90;95.30;;;;;;5039262;28;19932;-75
2023/04/17 05:15:41;;;;;;;;;;;8.90;95.30;;;;;;5040534;28;20408;-75
2023/04/17 05:18:07;;;;;;;;;;;8.90;95.30;;;;;;5042938;28;20112;-76
2023/04/17 05:20:35;;;;;;;;;;;8.90;95.30;;;;;;5040424;28;19951;-75
2023/04/17 05:23:01;;;;;;;;;;;8.90;95.30;;;;;;5036979;28;19978;-70
2023/04/17 05:25:29;;;;;;;;;;;8.90;95.30;;;;;;5040269;28;19932;-72
2023/04/17 05:27:55;;;;;;;;;;;8.90;95.40;;;;;;5036108;28;19936;-70
2023/04/17 05:30:22;;;;;;;;;;;8.90;95.40;;;;;;5041973;28;19939;-71
2023/04/17 05:32:49;;;;;;;;;;;8.90;95.40;;;;;;5039312;28;19924;-71
2023/04/17 05:35:15;;;;;;;;;;;8.90;95.30;;;;;;5040106;28;19933;-71
2023/04/17 05:37:42;;;;;;;;;;;8.90;95.40;;;;;;5036612;28;19925;-70
2023/04/17 05:40:09;;;;;;;;;;;8.90;95.40;;;;;;5040168;28;19929;-71
2023/04/17 05:42:37;;;;;;;;;;;8.90;95.40;;;;;;5036292;28;19929;-70
2023/04/17 05:45:03;;;;;;;;;;;8.90;95.40;;;;;;5043657;28;20373;-70
2023/04/17 05:47:30;;;;;;;;;;;8.90;95.30;;;;;;5057628;28;19928;-70
2023/04/17 05:49:58;;;;;;;;;;;9.00;95.30;;;;;;5063740;28;19928;-70
2023/04/17 05:52:25;;;;;;;;;;;8.90;95.30;;;;;;5058522;28;19933;-71
2023/04/17 05:54:51;;;;;;;;;;;8.90;95.30;;;;;;5059898;28;19928;-71
2023/04/17 05:57:18;;;;;;;;;;;9.00;95.30;;;;;;5056864;28;19975;-70
2023/04/17 05:59:47;;;;;;;;;;;8.90;95.30;;;;;;5050638;28;20006;-67
2023/04/17 06:02:14;;;;;;;;;;;8.90;95.30;;;;;;5061546;28;20018;-70
2023/04/17 06:04:41;;;;;;;;;;;8.90;95.30;;;;;;5060083;28;19928;-70
2023/04/17 06:07:08;;;;;;;;;;;8.90;95.30;;;;;;5064180;28;19932;-69
2023/04/17 06:09:36;;;;;;;;;;;9.00;95.30;;;;;;5061845;28;19928;-70
2023/04/17 06:12:02;;;;;;;;;;;8.90;95.20;;;;;;5060653;28;19934;-71
2023/04/17 06:14:29;;;;;;;;;;;9.00;95.20;;;;;;5067195;28;19935;-71
2023/04/17 06:16:57;;;;;;;;;;;9.00;95.20;;;;;;5061912;28;19932;-71
2023/04/17 06:19:23;;;;;;;;;;;9.00;95.20;;;;;;5059791;28;19928;-71
2023/04/17 06:21:50;;;;;;;;;;;9.00;95.30;;;;;;5062000;28;20677;-71
2023/04/17 06:24:17;;;;;;;;;;;9.00;95.30;;;;;;5063656;28;19936;-70
2023/04/17 06:26:44;;;;;;;;;;;9.00;95.30;;;;;;5062718;28;20066;-70
2023/04/17 06:29:11;;;;;;;;;;;9.00;95.20;;;;;;5055332;28;19935;-70
2023/04/17 06:31:37;;;;;;;;;;;9.00;95.30;;;;;;5047759;28;19928;-70
2023/04/17 06:34:05;;;;;;;;;;;9.00;95.30;;;;;;5040969;28;20006;-70
2023/04/17 06:36:32;;;;;;;;;;;9.00;95.30;;;;;;5040157;28;19936;-71
2023/04/17 06:38:58;;;;;;;;;;;9.00;95.30;;;;;;5042629;28;19935;-70
2023/04/17 06:41:25;;;;;;;;;;;9.00;95.30;;;;;;5039434;28;19933;-70
2023/04/17 06:43:51;;;;;;;;;;;9.00;95.30;;;;;;5036147;28;19925;-70
2023/04/17 06:46:18;;;;;;;;;;;9.00;95.30;;;;;;5039960;28;20031;-71
2023/04/17 06:48:44;;;;;;;;;;;9.00;95.30;;;;;;5041217;28;19940;-70
2023/04/17 06:51:12;;;;;;;;;;;9.10;95.30;;;;;;5034817;28;19939;-71
2023/04/17 06:53:39;;;;;;;;;;;9.00;95.40;;;;;;5037995;28;20363;-70
2023/04/17 06:56:06;;;;;;;;;;;9.10;95.40;;;;;;5038091;28;20314;-70
2023/04/17 06:58:37;;;;;;;;;;;9.10;95.50;;;;;;5036781;28;20032;-71
2023/04/17 07:01:04;;;;;;;;;;;9.00;95.80;;;;;;5031883;28;20037;-75
2023/04/17 07:03:31;;;;;;;;;;;9.10;95.50;;;;;;5036504;28;19928;-72
2023/04/17 07:05:57;;;;;;;;;;;9.10;95.60;;;;;;5042196;28;19932;-75
2023/04/17 07:08:25;;;;;;;;;;;9.10;95.60;;;;;;5041938;28;20027;-75
2023/04/17 07:10:53;;;;;;;;;;;9.10;95.70;;;;;;5032230;28;19995;-75
2023/04/17 07:13:20;;;;;;;;;;;9.10;95.70;;;;;;5032207;28;20019;-75
2023/04/17 07:15:51;;;;;;;;;;;9.10;95.80;;;;;;5042445;28;20210;-75
2023/04/17 07:18:17;;;;;;;;;;;9.20;95.80;;;;;;5057979;28;20048;-75
2023/04/17 07:20:44;;;;;;;;;;;9.20;95.80;;;;;;5055958;28;19928;-75
2023/04/17 07:23:10;;;;;;;;;;;9.20;95.80;;;;;;5055104;28;19928;-74
2023/04/17 07:25:38;;;;;;;;;;;9.20;95.90;;;;;;5059426;28;20014;-74
2023/04/17 07:28:05;;;;;;;;;;;9.20;95.90;;;;;;5057727;28;20421;-75
2023/04/17 07:30:31;;;;;;;;;;;9.20;95.80;;;;;;5053243;28;19929;-75
2023/04/17 07:32:58;;;;;;;;;;;9.20;95.80;;;;;;5043181;28;19930;-75
2023/04/17 07:35:25;;;;;;;;;;;9.20;95.80;;;;;;5040446;28;19936;-75
2023/04/17 07:37:51;;;;;;;;;;;9.30;95.80;;;;;;5036087;28;19968;-75
2023/04/17 07:40:18;;;;;;;;;;;9.30;95.80;;;;;;5037064;28;20051;-75
2023/04/17 07:42:46;;;;;;;;;;;9.30;95.80;;;;;;5041076;28;19929;-75
2023/04/17 07:45:12;;;;;;;;;;;9.30;95.90;;;;;;5042679;28;19951;-75
2023/04/17 07:47:39;;;;;;;;;;;9.40;96.00;;;;;;5036795;28;19935;-76
2023/04/17 07:50:06;;;;;;;;;;;9.40;95.90;;;;;;5041542;28;19940;-75
2023/04/17 07:52:33;;;;;;;;;;;9.40;95.90;;;;;;5037090;28;19936;-74
2023/04/17 07:54:59;;;;;;;;;;;9.40;95.90;;;;;;5041869;28;19940;-76
2023/04/17 07:57:26;;;;;;;;;;;9.40;95.90;;;;;;5031615;28;19929;-75
2023/04/17 07:59:54;;;;;;;;;;;9.40;95.80;;;;;;5035696;28;20027;-74
2023/04/17 08:02:21;;;;;;;;;;;9.50;95.80;;;;;;5038316;28;20025;-74
2023/04/17 08:04:47;;;;;;;;;;;9.50;95.80;;;;;;5033894;28;19936;-75
2023/04/17 08:07:14;;;;;;;;;;;9.50;95.80;;;;;;5039588;28;19932;-76
2023/04/17 08:09:40;;;;;;;;;;;9.50;95.70;;;;;;5039190;28;20011;-75
2023/04/17 08:12:07;;;;;;;;;;;9.50;95.80;;;;;;5035860;28;19935;-75
2023/04/17 08:14:33;;;;;;;;;;;9.60;95.80;;;;;;5027579;28;19936;-76
2023/04/17 08:17:02;;;;;;;;;;;9.60;95.80;;;;;;5029269;28;20276;-75
2023/04/17 08:19:29;;;;;;;;;;;9.60;95.80;;;;;;5030572;28;19928;-76
2023/04/17 08:22:01;;;;;;;;;;;9.60;95.80;;;;;;5031715;28;19964;-75
2023/04/17 08:24:27;;;;;;;;;;;9.90;95.90;;;;;;5029504;28;19929;-75
2023/04/17 08:26:54;;;;;;;;;;;9.60;95.70;;;;;;5031035;28;19940;-75
2023/04/17 08:29:20;;;;;;;;;;;9.60;95.90;;;;;;5037419;28;19929;-74
2023/04/17 08:31:47;;;;;;;;;;;9.70;95.80;;;;;;5033054;28;19932;-77
2023/04/17 08:34:15;;;;;;;;;;;9.70;95.80;;;;;;5033559;28;19978;-77
2023/04/17 08:36:42;;;;;;;;;;;9.90;97.40;;;;;;5037296;28;19929;-75
2023/04/17 08:39:10;;;;;;;;;;;10.30;98.00;;;;;;5039751;28;20026;-75
2023/04/17 08:41:39;;;;;;;;;;;10.70;97.00;;;;;;5042258;28;20700;-74
2023/04/17 08:44:06;;;;;;;;;;;11.00;96.60;;;;;;5046770;28;20466;-75
2023/04/17 08:46:33;;;;;;;;;;;11.30;96.10;;;;;;5039664;28;19929;-77
2023/04/17 08:49:01;;;;;;;;;;;11.60;95.40;;;;;;5040626;28;20138;-75
2023/04/17 08:51:30;;;;;;;;;;;11.70;94.70;;;;;;5036275;28;20682;-74
2023/04/17 08:53:57;;;;;;;;;;;12.00;93.90;;;;;;5048322;28;20382;-73
2023/04/17 08:56:23;;;;;;;;;;;12.00;93.50;;;;;;5044842;28;19941;-75
2023/04/17 08:58:50;;;;;;;;;;;12.00;93.50;;;;;;5039561;28;19928;-77
2023/04/17 09:01:18;;;;;;;;;;;11.90;93.40;;;;;;5033258;28;19925;-75
2023/04/17 09:03:47;;;;;;;;;;;11.90;93.40;;;;;;5039500;28;19933;-76
2023/04/17 09:06:14;;;;;;;;;;;11.80;93.50;;;;;;5038804;28;19928;-77
2023/04/17 09:08:54;;;;;;;;;;;11.90;93.30;;;;;;5039010;28;19939;-76
2023/04/17 09:11:20;;;;;;;;;;;12.00;93.10;;;;;;5040823;28;19933;-76
2023/04/17 09:13:47;;;;;;;;;;;12.10;93.10;;;;;;5039321;28;19932;-76
2023/04/17 09:16:15;;;;;;;;;;;12.20;93.00;;;;;;5041054;28;19929;-77
2023/04/17 09:18:42;;;;;;;;;;;12.20;92.90;;;;;;5040715;28;19929;-76
2023/04/17 09:21:09;;;;;;;;;;;12.40;92.80;;;;;;5039862;28;20521;-75
2023/04/17 09:23:47;;;;;;;;;;;12.50;92.40;;;;;;5038829;28;19932;-74
2023/04/17 09:26:14;;;;;;;;;;;12.50;92.00;;;;;;5042960;28;20469;-76
2023/04/17 09:28:42;;;;;;;;;;;12.50;91.90;;;;;;5034963;28;19932;-74
2023/04/17 09:31:24;;;;;;;;;;;12.50;92.10;;;;;;5038978;28;19934;-71
2023/04/17 09:33:55;;;;;;;;;;;12.60;93.20;;;;;;5050148;28;19939;-72
2023/04/17 09:36:22;;;;;;;;;;;12.60;91.80;;;;;;5053269;28;19928;-71
2023/04/17 09:38:50;;;;;;;;;;;12.70;91.50;;;;;;5046263;28;19929;-70
2023/04/17 09:41:24;;;;;;;;;;;13.10;91.30;;;;;;5043504;28;19951;-74
2023/04/17 09:43:52;;;;;;;;;;;12.70;90.70;;;;;;5043515;28;19995;-73
2023/04/17 09:46:30;;;;;;;;;;;12.70;91.00;;;;;;5043562;28;19928;-74
2023/04/17 09:48:58;;;;;;;;;;;12.30;91.30;;;;;;5045282;28;20063;-72
2023/04/17 09:51:25;;;;;;;;;;;12.60;91.30;;;;;;5041548;28;19937;-71
2023/04/17 09:53:55;;;;;;;;;;;13.30;90.40;;;;;;5045815;28;19932;-72
2023/04/17 09:56:23;;;;;;;;;;;13.30;90.50;;;;;;5040880;28;19928;-71
2023/04/17 09:58:50;;;;;;;;;;;13.60;89.90;;;;;;5042210;28;19935;-76
2023/04/17 10:01:18;;;;;;;;;;;13.00;89.30;;;;;;5044104;28;19929;-77
2023/04/17 10:03:45;;;;;;;;;;;13.30;89.10;;;;;;5042224;28;20380;-75
2023/04/17 10:06:12;;;;;;;;;;;14.00;90.10;;;;;;5043938;28;19928;-77
2023/04/17 10:08:39;;;;;;;;;;;13.10;90.00;;;;;;5038766;28;19936;-76
2023/04/17 10:11:07;;;;;;;;;;;13.00;90.30;;;;;;5037932;28;20280;-74
2023/04/17 10:13:35;;;;;;;;;;;12.70;90.20;;;;;;5037112;28;19929;-76
2023/04/17 10:16:01;;;;;;;;;;;13.00;90.60;;;;;;5044969;28;19933;-75
2023/04/17 10:18:28;;;;;;;;;;;12.60;90.90;;;;;;5040661;28;19943;-75
2023/04/17 10:20:55;;;;;;;;;;;12.50;91.00;;;;;;5040239;28;19951;-76
2023/04/17 10:23:26;;;;;;;;;;;12.80;90.30;;;;;;5030468;28;19929;-77
2023/04/17 10:26:23;;;;;;;;;;;12.80;90.50;;;;;;5036064;28;19929;-77
2023/04/17 10:28:51;;;;;;;;;;;13.50;90.90;;;;;;5037111;28;19932;-77
2023/04/17 10:31:18;;;;;;;;;;;12.60;89.40;;;;;;5044772;28;20491;-77
2023/04/17 10:33:48;;;;;;;;;;;12.90;89.20;;;;;;5044379;28;19929;-76
2023/04/17 10:36:41;;;;;;;;;;;13.20;89.60;;;;;;5047525;28;20371;-76
2023/04/17 10:39:13;;;;;;;;;;;12.50;88.50;;;;;;5032775;28;19929;-76
2023/04/17 10:41:55;;;;;;;;;;;13.10;87.40;;;;;;5037112;28;19936;-76
2023/04/17 10:44:24;;;;;;;;;;;13.30;85.70;;;;;;5036118;28;20027;-77
2023/04/17 10:46:50;;;;;;;;;;;13.30;86.20;;;;;;5038874;28;19932;-77
2023/04/17 10:49:17;;;;;;;;;;;13.30;85.70;;;;;;5041318;28;19928;-76
2023/04/17 10:51:43;;;;;;;;;;;13.40;85.80;;;;;;5043542;28;19935;-76
2023/04/17 10:54:14;;;;;;;;;;;11.60;84.00;;;;;;5039170;28;19936;-76
2023/04/17 10:56:41;;;;;;;;;;;13.40;85.80;;;;;;5043770;28;20515;-76
2023/04/17 10:59:08;;;;;;;;;;;13.40;86.40;;;;;;5038221;28;20063;-76
2023/04/17 11:01:39;;;;;;;;;;;13.40;86.80;;;;;;5043173;28;20135;-77
2023/04/17 11:04:06;;;;;;;;;;;13.50;85.40;;;;;;5037575;28;20020;-75
2023/04/17 11:06:36;;;;;;;;;;;13.40;85.80;;;;;;5043699;28;19929;-76
2023/04/17 11:09:05;;;;;;;;;;;13.40;85.00;;;;;;5040807;28;19936;-76
2023/04/17 11:11:36;;;;;;;;;;;13.50;84.50;;;;;;5040683;28;20473;-76
2023/04/17 11:14:05;;;;;;;;;;;13.60;83.40;;;;;;5039140;28;19928;-75
2023/04/17 11:16:32;;;;;;;;;;;13.60;83.70;;;;;;5039626;28;19936;-76
2023/04/17 11:19:00;;;;;;;;;;;14.00;83.70;;;;;;5043039;28;19929;-78
2023/04/17 11:21:28;;;;;;;;;;;13.90;82.70;;;;;;5042439;28;20125;-81
2023/04/17 11:23:55;;;;;;;;;;;13.80;81.40;;;;;;5049911;28;19935;-80
2023/04/17 11:26:22;;;;;;;;;;;13.80;82.20;;;;;;5044733;28;19929;-80
2023/04/17 11:28:49;;;;;;;;;;;13.70;82.50;;;;;;5043311;28;19928;-82
2023/04/17 11:31:15;;;;;;;;;;;14.40;82.30;;;;;;5055210;28;19956;-81
2023/04/17 11:33:42;;;;;;;;;;;13.60;81.60;;;;;;5049812;28;20391;-84
2023/04/17 11:36:10;;;;;;;;;;;13.60;83.30;;;;;;5044466;28;19936;-83
2023/04/17 11:38:37;;;;;;;;;;;13.60;81.70;;;;;;5047223;28;19994;-80
2023/04/17 11:41:03;;;;;;;;;;;14.30;83.00;;;;;;5052137;28;20078;-82
2023/04/17 11:43:34;;;;;;;;;;;13.60;81.60;;;;;;5047731;28;19951;-82
2023/04/17 11:46:01;;;;;;;;;;;14.70;82.90;;;;;;5044950;28;19980;-83
2023/04/17 11:48:31;;;;;;;;;;;13.60;81.80;;;;;;5044963;28;19940;-83
2023/04/17 11:50:58;;;;;;;;;;;15.10;83.20;;;;;;5043659;28;20483;-83
2023/04/17 11:53:27;;;;;;;;;;;14.00;80.60;;;;;;5048469;28;19933;-81
2023/04/17 11:56:10;;;;;;;;;;;15.20;82.00;;;;;;5053884;28;19964;-84
2023/04/17 11:58:44;;;;;;;;;;;14.00;80.20;;;;;;5041093;28;19940;-83
2023/04/17 12:01:11;;;;;;;;;;;14.00;80.70;;;;;;5046446;28;19994;-80
2023/04/17 12:03:38;;;;;;;;;;;14.10;80.90;;;;;;5057543;28;19935;-83
2023/04/17 12:06:05;;;;;;;;;;;14.00;79.90;;;;;;5050617;28;20383;-83
2023/04/17 12:08:42;;;;;;;;;;;14.00;79.20;;;;;;5038862;28;19932;-82
2023/04/17 12:11:14;;;;;;;;;;;14.00;79.60;;;;;;5050681;28;20762;-85
2023/04/17 12:13:41;;;;;;;;;;;14.10;79.10;;;;;;5047748;28;19935;-81
2023/04/17 12:16:07;;;;;;;;;;;14.20;77.70;;;;;;5047084;28;19936;-80
2023/04/17 12:18:34;;;;;;;;;;;14.20;77.70;;;;;;5043987;28;19929;-78
2023/04/17 12:21:00;;;;;;;;;;;14.00;78.80;;;;;;5048388;28;19929;-80
2023/04/17 12:23:27;;;;;;;;;;;13.70;80.20;;;;;;5044703;28;19929;-79
2023/04/17 12:25:55;;;;;;;;;;;13.40;81.50;;;;;;5052971;28;20374;-79
2023/04/17 12:28:21;;;;;;;;;;;13.20;82.40;;;;;;5047365;28;20731;-81
2023/04/17 12:30:48;;;;;;;;;;;13.00;83.20;;;;;;5049053;28;19975;-81
2023/04/17 12:33:15;;;;;;;;;;;13.00;84.10;;;;;;5052863;28;20383;-79
2023/04/17 12:35:42;;;;;;;;;;;12.80;84.60;;;;;;5052476;28;19968;-80
2023/04/17 12:38:08;;;;;;;;;;;12.80;85.10;;;;;;5049523;28;19939;-81
2023/04/17 12:40:35;;;;;;;;;;;12.70;85.50;;;;;;5050145;28;19929;-80
2023/04/17 12:43:04;;;;;;;;;;;12.70;86.00;;;;;;5049672;28;20470;-80
2023/04/17 12:45:32;;;;;;;;;;;12.70;86.10;;;;;;5050948;28;19929;-83
2023/04/17 12:47:58;;;;;;;;;;;12.80;86.50;;;;;;5055870;28;19929;-85
2023/04/17 12:50:26;;;;;;;;;;;13.00;85.70;;;;;;5062575;28;19928;-85
2023/04/17 12:52:52;;;;;;;;;;;13.30;83.80;;;;;;5057247;28;19932;-82
2023/04/17 12:55:19;;;;;;;;;;;13.60;83.00;;;;;;5056139;28;19925;-84
2023/04/17 12:57:45;;;;;;;;;;;13.70;82.60;;;;;;5057633;28;19933;-86
2023/04/17 13:00:14;;;;;;;;;;;13.60;81.70;;;;;;5052978;28;19968;-84
2023/04/17 13:02:41;;;;;;;;;;;13.50;82.30;;;;;;5058562;28;19928;-84
2023/04/17 13:05:08;;;;;;;;;;;13.40;82.80;;;;;;5050675;28;19928;-83
2023/04/17 13:07:34;;;;;;;;;;;13.40;82.30;;;;;;5063386;28;20324;-86
2023/04/17 13:10:01;;;;;;;;;;;13.40;82.10;;;;;;5055206;28;19940;-84
2023/04/17 13:12:27;;;;;;;;;;;13.40;81.40;;;;;;5052854;28;19936;-83
2023/04/17 13:14:56;;;;;;;;;;;13.40;81.90;;;;;;5050142;28;19928;-82
2023/04/17 13:17:24;;;;;;;;;;;13.40;81.70;;;;;;5048718;28;19929;-83
2023/04/17 13:19:50;;;;;;;;;;;13.50;81.50;;;;;;5053559;28;19929;-81
2023/04/17 13:22:19;;;;;;;;;;;13.30;81.50;;;;;;5055865;28;19935;-80
2023/04/17 13:36:50;;;;;;;;;;;13.40;83.30;;;;;;5079294;27;19927;-71
2023/04/17 13:39:17;;;;;;;;;;;13.40;83.70;;;;;;5055276;28;19933;-71
2023/04/17 13:41:44;;;;;;;;;;;13.40;85.00;;;;;;5054469;28;20398;-70
2023/04/17 13:44:11;;;;;;;;;;;13.40;85.10;;;;;;5051501;28;19929;-68
2023/04/17 13:46:37;;;;;;;;;;;13.40;84.50;;;;;;5051976;27;19932;-68
2023/04/17 13:49:04;;;;;;;;;;;13.40;84.00;;;;;;5054963;28;20391;-70
2023/04/17 13:51:31;;;;;;;;;;;13.50;83.60;;;;;;5055996;28;19932;-71
2023/04/17 13:53:59;;;;;;;;;;;13.50;82.00;;;;;;5056441;28;21224;-71
2023/04/17 13:56:26;;;;;;;;;;;13.40;82.40;;;;;;5052168;28;19935;-68
2023/04/17 13:58:53;;;;;;;;;;;13.30;83.60;;;;;;5048655;28;20028;-69
2023/04/17 14:01:19;;;;;;;;;;;13.20;83.90;;;;;;5054002;28;19928;-71
2023/04/17 14:03:46;;;;;;;;;;;13.10;84.30;;;;;;5050908;28;19928;-69
2023/04/17 14:06:13;;;;;;;;;;;13.00;84.80;;;;;;5054410;28;19932;-69
2023/04/17 14:08:40;;;;;;;;;;;13.00;85.10;;;;;;5052080;28;20156;-69
2023/04/17 14:11:07;;;;;;;;;;;12.90;85.50;;;;;;5049588;28;19932;-76
2023/04/17 14:13:34;;;;;;;;;;;12.90;85.50;;;;;;5054015;28;19928;-76
2023/04/17 14:16:01;;;;;;;;;;;12.90;85.80;;;;;;5042224;28;19940;-77
2023/04/17 14:18:27;;;;;;;;;;;12.90;86.00;;;;;;5045031;28;20382;-81
2023/04/17 14:20:54;;;;;;;;;;;12.80;86.00;;;;;;5054338;28;20394;-79
2023/04/17 14:23:20;;;;;;;;;;;12.80;86.00;;;;;;5052329;28;19932;-78
2023/04/17 14:25:47;;;;;;;;;;;12.90;86.20;;;;;;5057614;28;19929;-79
2023/04/17 14:28:15;;;;;;;;;;;12.80;86.10;;;;;;5055413;28;19951;-81
2023/04/17 14:30:41;;;;;;;;;;;12.80;86.30;;;;;;5053633;28;19940;-78
2023/04/17 14:33:08;;;;;;;;;;;12.90;86.20;;;;;;5060654;28;19960;-80
2023/04/17 14:35:34;;;;;;;;;;;12.80;86.10;;;;;;5055611;28;19959;-79
2023/04/17 14:38:03;;;;;;;;;;;12.80;86.10;;;;;;5054496;28;20771;-81